Flight Number: AVA1771 Duration: 1:00
Departure: London City Airport (EGLC) at 12:00 Distance: 284.182 Nm
Arrival: Belfast City (EGAC) at 13:00 Equipment: B737

Weather Information
London City Airport, United Kingdom (EGLC) 51-30N 000-30W Jul 19, 2024 - 01:50 PM EDT / 2024.07.19 1750 UTC
Wind: from the SSW (200 degrees) at 8 MPH (7 KT) (direction variable):0
Visibility: greater than 7 mile(s):0 Temperature: 84 F (29 C) Dew Point: 57 F (14 C) Relative Humidity: 39% Pressure (altimeter): 29.91 in. Hg (1013 hPa)
ob: EGLC 191750Z AUTO 20007KT 150V230 9999 NCD 29/14 Q1013 cycle: 18
Sunrise: 04:11 Sunset: 20:01 (UTC)

Belfast / Harbour, United Kingdom (EGAC) 54-36N 005-53W 0M Jul 19, 2024 - 01:50 PM EDT / 2024.07.19 1750 UTC
Wind: from the S (170 degrees) at 12 MPH (10 KT) (direction variable):0
Visibility: greater than 7 mile(s):0
Sky conditions: partly cloudy Temperature: 66 F (19 C) Dew Point: 59 F (15 C) Relative Humidity: 77% Pressure (altimeter): 29.80 in. Hg (1009 hPa)
ob: EGAC 191750Z AUTO 17010KT 140V200 9999 SCT043 19/15 Q1009 cycle: 18
Sunrise: 04:19 Sunset: 20:39 (UTC)

TAF:2021/12/01 18:06 TAF TAF EGAC 010102Z 3018/0103 CNL

Previous Pireps for this route
Date Flightnr Aircraft Flight time Fuel used Landing rate On time
2017-07-11AVA1771B7371.049777-98Yes
2017-11-04AVX9321A32101.046429-252Charter
2018-10-13AVA1771B7370.556443-673Yes
2013-10-24EUR223701:00:0094050Charter
(pireps marked green are flown by you)

Route map